sensor_id;sensor_type;location;lat;lon;timestamp;P1;durP1;ratioP1;P2;durP2;ratioP2
61840;SDS011;47773;53.174;6.614;2024-02-23T00:01:41;2.60;;;0.40;;
61840;SDS011;47773;53.174;6.614;2024-02-23T00:04:06;4.50;;;0.60;;
61840;SDS011;47773;53.174;6.614;2024-02-23T00:06:33;4.97;;;0.60;;
61840;SDS011;47773;53.174;6.614;2024-02-23T00:08:59;3.88;;;0.52;;
61840;SDS011;47773;53.174;6.614;2024-02-23T00:11:25;8.57;;;0.80;;
61840;SDS011;47773;53.174;6.614;2024-02-23T00:13:53;6.00;;;0.70;;
61840;SDS011;47773;53.174;6.614;2024-02-23T00:16:18;6.45;;;0.73;;
61840;SDS011;47773;53.174;6.614;2024-02-23T00:18:44;8.00;;;0.90;;
61840;SDS011;47773;53.174;6.614;2024-02-23T00:21:10;8.25;;;0.90;;
61840;SDS011;47773;53.174;6.614;2024-02-23T00:23:35;2.63;;;0.50;;
61840;SDS011;47773;53.174;6.614;2024-02-23T00:26:01;7.18;;;0.68;;
61840;SDS011;47773;53.174;6.614;2024-02-23T00:28:27;8.05;;;1.08;;
61840;SDS011;47773;53.174;6.614;2024-02-23T00:30:52;4.15;;;0.73;;
61840;SDS011;47773;53.174;6.614;2024-02-23T00:33:18;8.82;;;0.88;;
61840;SDS011;47773;53.174;6.614;2024-02-23T00:35:44;4.30;;;0.60;;
61840;SDS011;47773;53.174;6.614;2024-02-23T00:38:09;5.68;;;0.70;;
61840;SDS011;47773;53.174;6.614;2024-02-23T00:40:35;3.13;;;0.50;;
61840;SDS011;47773;53.174;6.614;2024-02-23T00:43:01;5.50;;;0.60;;
61840;SDS011;47773;53.174;6.614;2024-02-23T00:45:28;0.88;;;0.40;;
61840;SDS011;47773;53.174;6.614;2024-02-23T00:47:54;6.38;;;0.50;;
61840;SDS011;47773;53.174;6.614;2024-02-23T00:50:19;3.72;;;0.68;;
61840;SDS011;47773;53.174;6.614;2024-02-23T00:52:45;5.75;;;0.60;;
61840;SDS011;47773;53.174;6.614;2024-02-23T00:55:11;4.38;;;0.50;;
61840;SDS011;47773;53.174;6.614;2024-02-23T00:57:37;6.63;;;0.60;;
61840;SDS011;47773;53.174;6.614;2024-02-23T01:00:04;1.60;;;0.47;;
61840;SDS011;47773;53.174;6.614;2024-02-23T01:02:34;3.67;;;0.43;;
61840;SDS011;47773;53.174;6.614;2024-02-23T01:05:00;4.38;;;0.80;;
61840;SDS011;47773;53.174;6.614;2024-02-23T01:07:25;4.25;;;0.50;;
61840;SDS011;47773;53.174;6.614;2024-02-23T01:09:51;4.35;;;0.70;;
61840;SDS011;47773;53.174;6.614;2024-02-23T01:12:16;4.55;;;0.80;;
61840;SDS011;47773;53.174;6.614;2024-02-23T01:14:42;3.03;;;0.50;;
61840;SDS011;47773;53.174;6.614;2024-02-23T01:17:08;3.35;;;0.80;;
61840;SDS011;47773;53.174;6.614;2024-02-23T01:19:33;7.78;;;0.98;;
61840;SDS011;47773;53.174;6.614;2024-02-23T01:21:59;4.10;;;0.80;;
61840;SDS011;47773;53.174;6.614;2024-02-23T01:24:25;2.50;;;0.55;;
61840;SDS011;47773;53.174;6.614;2024-02-23T01:26:55;4.63;;;0.98;;
61840;SDS011;47773;53.174;6.614;2024-02-23T01:29:21;7.03;;;0.82;;
61840;SDS011;47773;53.174;6.614;2024-02-23T01:31:47;9.48;;;1.30;;
61840;SDS011;47773;53.174;6.614;2024-02-23T01:34:13;5.97;;;0.70;;
61840;SDS011;47773;53.174;6.614;2024-02-23T01:36:39;5.97;;;0.90;;
61840;SDS011;47773;53.174;6.614;2024-02-23T01:39:05;9.75;;;1.20;;
61840;SDS011;47773;53.174;6.614;2024-02-23T01:41:32;4.93;;;1.13;;
61840;SDS011;47773;53.174;6.614;2024-02-23T01:43:58;9.73;;;1.20;;
61840;SDS011;47773;53.174;6.614;2024-02-23T01:46:23;5.30;;;1.00;;
61840;SDS011;47773;53.174;6.614;2024-02-23T01:48:49;5.35;;;1.17;;
61840;SDS011;47773;53.174;6.614;2024-02-23T01:51:15;4.18;;;0.98;;
61840;SDS011;47773;53.174;6.614;2024-02-23T01:53:41;6.13;;;1.20;;
61840;SDS011;47773;53.174;6.614;2024-02-23T01:56:07;5.00;;;1.20;;
61840;SDS011;47773;53.174;6.614;2024-02-23T01:58:35;11.30;;;1.40;;
61840;SDS011;47773;53.174;6.614;2024-02-23T02:01:02;10.52;;;1.60;;
61840;SDS011;47773;53.174;6.614;2024-02-23T02:03:28;12.18;;;1.50;;
61840;SDS011;47773;53.174;6.614;2024-02-23T02:05:54;8.13;;;1.30;;
61840;SDS011;47773;53.174;6.614;2024-02-23T02:08:23;5.20;;;0.88;;
61840;SDS011;47773;53.174;6.614;2024-02-23T02:10:50;11.90;;;1.20;;
61840;SDS011;47773;53.174;6.614;2024-02-23T02:13:18;6.43;;;1.10;;
61840;SDS011;47773;53.174;6.614;2024-02-23T02:15:44;8.40;;;1.25;;
61840;SDS011;47773;53.174;6.614;2024-02-23T02:18:10;6.45;;;1.10;;
61840;SDS011;47773;53.174;6.614;2024-02-23T02:20:36;8.90;;;1.45;;
61840;SDS011;47773;53.174;6.614;2024-02-23T02:23:02;15.77;;;1.52;;
61840;SDS011;47773;53.174;6.614;2024-02-23T02:25:28;11.00;;;2.22;;
61840;SDS011;47773;53.174;6.614;2024-02-23T02:27:54;7.95;;;1.65;;
61840;SDS011;47773;53.174;6.614;2024-02-23T02:30:19;13.85;;;1.77;;
61840;SDS011;47773;53.174;6.614;2024-02-23T02:32:45;9.52;;;1.58;;
61840;SDS011;47773;53.174;6.614;2024-02-23T02:35:11;11.57;;;1.63;;
61840;SDS011;47773;53.174;6.614;2024-02-23T02:37:37;11.38;;;1.83;;
61840;SDS011;47773;53.174;6.614;2024-02-23T02:40:04;11.88;;;1.45;;
61840;SDS011;47773;53.174;6.614;2024-02-23T02:42:30;11.65;;;1.75;;
61840;SDS011;47773;53.174;6.614;2024-02-23T02:44:56;14.85;;;2.65;;
61840;SDS011;47773;53.174;6.614;2024-02-23T02:47:21;10.43;;;2.00;;
61840;SDS011;47773;53.174;6.614;2024-02-23T02:49:47;13.57;;;1.90;;
61840;SDS011;47773;53.174;6.614;2024-02-23T02:52:13;11.50;;;2.00;;
61840;SDS011;47773;53.174;6.614;2024-02-23T02:54:39;14.13;;;1.98;;
61840;SDS011;47773;53.174;6.614;2024-02-23T02:57:05;11.57;;;1.70;;
61840;SDS011;47773;53.174;6.614;2024-02-23T02:59:33;15.57;;;1.73;;
61840;SDS011;47773;53.174;6.614;2024-02-23T03:02:00;8.02;;;2.00;;
61840;SDS011;47773;53.174;6.614;2024-02-23T03:04:26;7.38;;;1.52;;
61840;SDS011;47773;53.174;6.614;2024-02-23T03:06:51;10.70;;;1.58;;
61840;SDS011;47773;53.174;6.614;2024-02-23T03:09:17;15.15;;;1.98;;
61840;SDS011;47773;53.174;6.614;2024-02-23T03:11:43;15.52;;;2.53;;
61840;SDS011;47773;53.174;6.614;2024-02-23T03:14:08;15.98;;;1.83;;
61840;SDS011;47773;53.174;6.614;2024-02-23T03:16:35;16.30;;;1.77;;
61840;SDS011;47773;53.174;6.614;2024-02-23T03:19:02;9.02;;;1.45;;
61840;SDS011;47773;53.174;6.614;2024-02-23T03:21:28;14.77;;;1.38;;
61840;SDS011;47773;53.174;6.614;2024-02-23T03:23:54;17.70;;;1.52;;
61840;SDS011;47773;53.174;6.614;2024-02-23T03:26:19;13.38;;;1.77;;
61840;SDS011;47773;53.174;6.614;2024-02-23T03:28:45;13.30;;;1.90;;
61840;SDS011;47773;53.174;6.614;2024-02-23T03:31:11;16.17;;;2.10;;
61840;SDS011;47773;53.174;6.614;2024-02-23T03:33:37;14.05;;;2.00;;
61840;SDS011;47773;53.174;6.614;2024-02-23T03:36:02;8.82;;;1.25;;
61840;SDS011;47773;53.174;6.614;2024-02-23T03:38:29;14.02;;;1.50;;
61840;SDS011;47773;53.174;6.614;2024-02-23T03:40:55;15.13;;;1.70;;
61840;SDS011;47773;53.174;6.614;2024-02-23T03:43:21;5.82;;;1.20;;
61840;SDS011;47773;53.174;6.614;2024-02-23T03:45:47;15.00;;;1.65;;
61840;SDS011;47773;53.174;6.614;2024-02-23T03:48:12;11.43;;;1.40;;
61840;SDS011;47773;53.174;6.614;2024-02-23T03:50:38;13.68;;;2.00;;
61840;SDS011;47773;53.174;6.614;2024-02-23T03:53:04;12.90;;;1.58;;
61840;SDS011;47773;53.174;6.614;2024-02-23T03:55:30;11.57;;;1.23;;
61840;SDS011;47773;53.174;6.614;2024-02-23T03:57:56;10.48;;;1.73;;
61840;SDS011;47773;53.174;6.614;2024-02-23T04:00:22;9.13;;;1.13;;
61840;SDS011;47773;53.174;6.614;2024-02-23T04:02:48;15.10;;;1.17;;
61840;SDS011;47773;53.174;6.614;2024-02-23T04:05:14;11.57;;;1.58;;
61840;SDS011;47773;53.174;6.614;2024-02-23T04:07:40;8.70;;;1.30;;
61840;SDS011;47773;53.174;6.614;2024-02-23T04:10:06;9.68;;;1.42;;
61840;SDS011;47773;53.174;6.614;2024-02-23T04:12:32;14.88;;;1.33;;
61840;SDS011;47773;53.174;6.614;2024-02-23T04:14:57;17.48;;;1.83;;
61840;SDS011;47773;53.174;6.614;2024-02-23T04:17:23;12.63;;;1.33;;
61840;SDS011;47773;53.174;6.614;2024-02-23T04:19:49;8.65;;;1.30;;
61840;SDS011;47773;53.174;6.614;2024-02-23T04:22:14;9.65;;;1.13;;
61840;SDS011;47773;53.174;6.614;2024-02-23T04:24:40;9.60;;;1.35;;
61840;SDS011;47773;53.174;6.614;2024-02-23T04:27:08;12.35;;;1.55;;
61840;SDS011;47773;53.174;6.614;2024-02-23T04:29:34;10.52;;;1.25;;
61840;SDS011;47773;53.174;6.614;2024-02-23T04:31:59;16.20;;;1.50;;
61840;SDS011;47773;53.174;6.614;2024-02-23T04:34:26;10.63;;;1.33;;
61840;SDS011;47773;53.174;6.614;2024-02-23T04:36:52;12.05;;;1.63;;
61840;SDS011;47773;53.174;6.614;2024-02-23T04:39:18;9.05;;;1.17;;
61840;SDS011;47773;53.174;6.614;2024-02-23T04:41:44;10.05;;;1.23;;
61840;SDS011;47773;53.174;6.614;2024-02-23T04:44:09;6.35;;;1.23;;
61840;SDS011;47773;53.174;6.614;2024-02-23T04:46:35;11.68;;;1.35;;
61840;SDS011;47773;53.174;6.614;2024-02-23T04:49:01;8.60;;;1.27;;
61840;SDS011;47773;53.174;6.614;2024-02-23T04:51:27;12.73;;;1.30;;
61840;SDS011;47773;53.174;6.614;2024-02-23T04:53:53;8.55;;;1.10;;
61840;SDS011;47773;53.174;6.614;2024-02-23T04:56:19;19.02;;;1.20;;
61840;SDS011;47773;53.174;6.614;2024-02-23T04:58:45;11.82;;;1.52;;
61840;SDS011;47773;53.174;6.614;2024-02-23T05:01:11;8.82;;;0.93;;
61840;SDS011;47773;53.174;6.614;2024-02-23T05:03:37;7.00;;;1.30;;
61840;SDS011;47773;53.174;6.614;2024-02-23T05:06:03;15.07;;;2.75;;
61840;SDS011;47773;53.174;6.614;2024-02-23T05:08:29;11.75;;;1.17;;
61840;SDS011;47773;53.174;6.614;2024-02-23T05:10:58;9.48;;;1.00;;
61840;SDS011;47773;53.174;6.614;2024-02-23T05:13:24;7.88;;;1.10;;
61840;SDS011;47773;53.174;6.614;2024-02-23T05:15:49;6.60;;;1.10;;
61840;SDS011;47773;53.174;6.614;2024-02-23T05:18:15;11.82;;;1.77;;
61840;SDS011;47773;53.174;6.614;2024-02-23T05:20:41;16.77;;;1.95;;
61840;SDS011;47773;53.174;6.614;2024-02-23T05:23:06;16.27;;;1.75;;
61840;SDS011;47773;53.174;6.614;2024-02-23T05:25:32;10.77;;;1.40;;
61840;SDS011;47773;53.174;6.614;2024-02-23T05:27:58;10.82;;;1.00;;
61840;SDS011;47773;53.174;6.614;2024-02-23T05:30:24;9.48;;;1.55;;
61840;SDS011;47773;53.174;6.614;2024-02-23T05:32:51;14.75;;;1.77;;
61840;SDS011;47773;53.174;6.614;2024-02-23T05:35:17;12.25;;;1.20;;
61840;SDS011;47773;53.174;6.614;2024-02-23T05:37:43;11.32;;;1.83;;
61840;SDS011;47773;53.174;6.614;2024-02-23T05:40:08;8.40;;;1.65;;
61840;SDS011;47773;53.174;6.614;2024-02-23T05:42:37;11.23;;;1.33;;
61840;SDS011;47773;53.174;6.614;2024-02-23T05:45:03;11.48;;;1.52;;
61840;SDS011;47773;53.174;6.614;2024-02-23T05:47:34;7.63;;;1.48;;
61840;SDS011;47773;53.174;6.614;2024-02-23T05:50:03;7.68;;;1.70;;
61840;SDS011;47773;53.174;6.614;2024-02-23T05:52:33;9.40;;;1.88;;
61840;SDS011;47773;53.174;6.614;2024-02-23T05:54:59;6.25;;;1.65;;
61840;SDS011;47773;53.174;6.614;2024-02-23T05:57:28;14.50;;;2.38;;
61840;SDS011;47773;53.174;6.614;2024-02-23T05:59:54;14.77;;;2.53;;
61840;SDS011;47773;53.174;6.614;2024-02-23T06:02:20;11.10;;;3.00;;
61840;SDS011;47773;53.174;6.614;2024-02-23T06:04:47;17.50;;;2.97;;
61840;SDS011;47773;53.174;6.614;2024-02-23T06:07:12;8.43;;;2.50;;
61840;SDS011;47773;53.174;6.614;2024-02-23T06:09:40;11.52;;;2.70;;
61840;SDS011;47773;53.174;6.614;2024-02-23T06:12:06;10.50;;;3.08;;
61840;SDS011;47773;53.174;6.614;2024-02-23T06:14:33;15.20;;;3.03;;
61840;SDS011;47773;53.174;6.614;2024-02-23T06:16:58;12.35;;;3.75;;
61840;SDS011;47773;53.174;6.614;2024-02-23T06:19:24;11.40;;;3.50;;
61840;SDS011;47773;53.174;6.614;2024-02-23T06:21:50;12.48;;;3.85;;
61840;SDS011;47773;53.174;6.614;2024-02-23T06:24:15;14.18;;;4.57;;
61840;SDS011;47773;53.174;6.614;2024-02-23T06:26:41;10.90;;;4.68;;
61840;SDS011;47773;53.174;6.614;2024-02-23T06:29:07;8.20;;;4.55;;
61840;SDS011;47773;53.174;6.614;2024-02-23T06:31:36;13.18;;;5.60;;
61840;SDS011;47773;53.174;6.614;2024-02-23T06:34:03;15.20;;;5.00;;
61840;SDS011;47773;53.174;6.614;2024-02-23T06:36:29;16.60;;;5.20;;
61840;SDS011;47773;53.174;6.614;2024-02-23T06:38:55;15.98;;;5.13;;
61840;SDS011;47773;53.174;6.614;2024-02-23T06:41:20;22.20;;;5.13;;
61840;SDS011;47773;53.174;6.614;2024-02-23T06:43:46;14.30;;;4.88;;
61840;SDS011;47773;53.174;6.614;2024-02-23T06:46:12;13.85;;;5.45;;
61840;SDS011;47773;53.174;6.614;2024-02-23T06:48:37;11.88;;;4.75;;
61840;SDS011;47773;53.174;6.614;2024-02-23T06:51:06;12.15;;;4.95;;
61840;SDS011;47773;53.174;6.614;2024-02-23T06:53:35;11.13;;;4.95;;
61840;SDS011;47773;53.174;6.614;2024-02-23T06:56:00;14.88;;;5.00;;
61840;SDS011;47773;53.174;6.614;2024-02-23T06:58:27;14.20;;;5.22;;
61840;SDS011;47773;53.174;6.614;2024-02-23T07:00:53;12.48;;;5.00;;
61840;SDS011;47773;53.174;6.614;2024-02-23T07:03:18;20.05;;;5.30;;
61840;SDS011;47773;53.174;6.614;2024-02-23T07:05:44;18.63;;;5.35;;
61840;SDS011;47773;53.174;6.614;2024-02-23T07:08:11;11.30;;;4.50;;
61840;SDS011;47773;53.174;6.614;2024-02-23T07:10:37;14.52;;;5.22;;
61840;SDS011;47773;53.174;6.614;2024-02-23T07:13:02;17.30;;;5.75;;
61840;SDS011;47773;53.174;6.614;2024-02-23T07:15:28;18.65;;;5.38;;
61840;SDS011;47773;53.174;6.614;2024-02-23T07:17:55;15.27;;;5.85;;
61840;SDS011;47773;53.174;6.614;2024-02-23T07:20:21;16.33;;;5.43;;
61840;SDS011;47773;53.174;6.614;2024-02-23T07:22:47;13.02;;;5.00;;
61840;SDS011;47773;53.174;6.614;2024-02-23T07:25:16;14.48;;;5.70;;
61840;SDS011;47773;53.174;6.614;2024-02-23T07:27:43;13.85;;;5.28;;
61840;SDS011;47773;53.174;6.614;2024-02-23T07:30:09;15.23;;;5.30;;
61840;SDS011;47773;53.174;6.614;2024-02-23T07:32:35;16.65;;;5.68;;
61840;SDS011;47773;53.174;6.614;2024-02-23T07:35:01;19.42;;;5.63;;
61840;SDS011;47773;53.174;6.614;2024-02-23T07:37:28;15.65;;;4.97;;
61840;SDS011;47773;53.174;6.614;2024-02-23T07:39:54;13.45;;;4.97;;
61840;SDS011;47773;53.174;6.614;2024-02-23T07:42:20;12.20;;;5.25;;
61840;SDS011;47773;53.174;6.614;2024-02-23T07:44:45;11.88;;;4.43;;
61840;SDS011;47773;53.174;6.614;2024-02-23T07:47:11;16.90;;;4.60;;
61840;SDS011;47773;53.174;6.614;2024-02-23T07:49:37;15.85;;;4.10;;
61840;SDS011;47773;53.174;6.614;2024-02-23T07:52:05;21.10;;;5.32;;
61840;SDS011;47773;53.174;6.614;2024-02-23T07:54:32;12.23;;;4.78;;
61840;SDS011;47773;53.174;6.614;2024-02-23T07:56:58;10.20;;;4.15;;
61840;SDS011;47773;53.174;6.614;2024-02-23T07:59:24;8.93;;;4.30;;
61840;SDS011;47773;53.174;6.614;2024-02-23T08:01:50;13.15;;;4.13;;
61840;SDS011;47773;53.174;6.614;2024-02-23T08:04:16;9.43;;;4.05;;
61840;SDS011;47773;53.174;6.614;2024-02-23T08:06:41;11.45;;;3.83;;
61840;SDS011;47773;53.174;6.614;2024-02-23T08:09:08;12.30;;;4.13;;
61840;SDS011;47773;53.174;6.614;2024-02-23T08:11:34;12.43;;;3.80;;
61840;SDS011;47773;53.174;6.614;2024-02-23T08:14:00;11.02;;;3.90;;
61840;SDS011;47773;53.174;6.614;2024-02-23T08:16:26;10.77;;;4.38;;
61840;SDS011;47773;53.174;6.614;2024-02-23T08:18:52;10.85;;;3.55;;
61840;SDS011;47773;53.174;6.614;2024-02-23T08:21:17;9.55;;;4.07;;
61840;SDS011;47773;53.174;6.614;2024-02-23T08:23:43;13.80;;;3.97;;
61840;SDS011;47773;53.174;6.614;2024-02-23T08:26:10;9.45;;;4.07;;
61840;SDS011;47773;53.174;6.614;2024-02-23T08:28:35;9.32;;;3.75;;
61840;SDS011;47773;53.174;6.614;2024-02-23T08:31:01;9.82;;;2.95;;
61840;SDS011;47773;53.174;6.614;2024-02-23T08:33:27;10.32;;;3.25;;
61840;SDS011;47773;53.174;6.614;2024-02-23T08:35:52;9.65;;;3.15;;
61840;SDS011;47773;53.174;6.614;2024-02-23T08:38:18;11.18;;;2.90;;
61840;SDS011;47773;53.174;6.614;2024-02-23T08:40:44;8.75;;;2.50;;
61840;SDS011;47773;53.174;6.614;2024-02-23T08:43:10;8.27;;;2.60;;
61840;SDS011;47773;53.174;6.614;2024-02-23T08:45:36;10.40;;;2.55;;
61840;SDS011;47773;53.174;6.614;2024-02-23T08:48:02;7.45;;;2.55;;
61840;SDS011;47773;53.174;6.614;2024-02-23T08:50:28;5.70;;;2.15;;
61840;SDS011;47773;53.174;6.614;2024-02-23T08:52:54;6.15;;;1.80;;
61840;SDS011;47773;53.174;6.614;2024-02-23T08:55:20;6.78;;;1.75;;
61840;SDS011;47773;53.174;6.614;2024-02-23T08:57:46;6.25;;;1.90;;
61840;SDS011;47773;53.174;6.614;2024-02-23T09:00:12;7.30;;;2.00;;
61840;SDS011;47773;53.174;6.614;2024-02-23T09:02:39;5.90;;;1.80;;
61840;SDS011;47773;53.174;6.614;2024-02-23T09:05:07;11.20;;;2.00;;
61840;SDS011;47773;53.174;6.614;2024-02-23T09:07:33;13.93;;;2.28;;
61840;SDS011;47773;53.174;6.614;2024-02-23T09:09:59;7.60;;;2.05;;
61840;SDS011;47773;53.174;6.614;2024-02-23T09:12:24;8.23;;;1.90;;
61840;SDS011;47773;53.174;6.614;2024-02-23T09:14:51;6.70;;;1.92;;
61840;SDS011;47773;53.174;6.614;2024-02-23T09:17:16;7.68;;;2.08;;
61840;SDS011;47773;53.174;6.614;2024-02-23T09:19:44;12.88;;;2.20;;
61840;SDS011;47773;53.174;6.614;2024-02-23T09:22:10;11.98;;;2.22;;
61840;SDS011;47773;53.174;6.614;2024-02-23T09:24:38;14.88;;;2.47;;
61840;SDS011;47773;53.174;6.614;2024-02-23T09:27:05;10.70;;;1.98;;
61840;SDS011;47773;53.174;6.614;2024-02-23T09:29:32;4.97;;;1.70;;
61840;SDS011;47773;53.174;6.614;2024-02-23T09:31:57;8.57;;;1.90;;
61840;SDS011;47773;53.174;6.614;2024-02-23T09:34:23;5.60;;;1.58;;
61840;SDS011;47773;53.174;6.614;2024-02-23T09:36:50;8.20;;;1.85;;
61840;SDS011;47773;53.174;6.614;2024-02-23T09:39:15;5.93;;;1.52;;
61840;SDS011;47773;53.174;6.614;2024-02-23T09:41:41;9.63;;;1.85;;
61840;SDS011;47773;53.174;6.614;2024-02-23T09:44:07;8.25;;;1.85;;
61840;SDS011;47773;53.174;6.614;2024-02-23T09:46:34;12.75;;;1.42;;
61840;SDS011;47773;53.174;6.614;2024-02-23T09:49:02;8.98;;;1.75;;
61840;SDS011;47773;53.174;6.614;2024-02-23T09:51:28;8.70;;;1.58;;
61840;SDS011;47773;53.174;6.614;2024-02-23T09:53:56;7.72;;;1.33;;
61840;SDS011;47773;53.174;6.614;2024-02-23T09:56:23;9.93;;;1.85;;
61840;SDS011;47773;53.174;6.614;2024-02-23T09:58:52;12.05;;;1.42;;
61840;SDS011;47773;53.174;6.614;2024-02-23T10:01:21;4.78;;;1.52;;
61840;SDS011;47773;53.174;6.614;2024-02-23T10:03:52;8.70;;;1.58;;
61840;SDS011;47773;53.174;6.614;2024-02-23T10:06:25;14.48;;;1.90;;
61840;SDS011;47773;53.174;6.614;2024-02-23T10:08:52;7.32;;;1.25;;
61840;SDS011;47773;53.174;6.614;2024-02-23T10:11:21;9.73;;;2.13;;
61840;SDS011;47773;53.174;6.614;2024-02-23T10:13:48;10.07;;;1.40;;
61840;SDS011;47773;53.174;6.614;2024-02-23T10:16:15;8.75;;;1.38;;
61840;SDS011;47773;53.174;6.614;2024-02-23T10:18:41;10.77;;;1.60;;
61840;SDS011;47773;53.174;6.614;2024-02-23T10:21:07;20.02;;;1.63;;
61840;SDS011;47773;53.174;6.614;2024-02-23T10:23:33;9.88;;;1.90;;
61840;SDS011;47773;53.174;6.614;2024-02-23T10:25:58;15.50;;;1.67;;
61840;SDS011;47773;53.174;6.614;2024-02-23T10:28:24;12.15;;;1.30;;
61840;SDS011;47773;53.174;6.614;2024-02-23T10:30:50;11.88;;;1.55;;
61840;SDS011;47773;53.174;6.614;2024-02-23T10:33:16;7.72;;;1.27;;
61840;SDS011;47773;53.174;6.614;2024-02-23T10:35:47;5.03;;;1.10;;
61840;SDS011;47773;53.174;6.614;2024-02-23T10:38:17;6.28;;;1.20;;
61840;SDS011;47773;53.174;6.614;2024-02-23T10:40:44;9.18;;;1.52;;
61840;SDS011;47773;53.174;6.614;2024-02-23T10:43:12;8.93;;;1.20;;
61840;SDS011;47773;53.174;6.614;2024-02-23T10:45:42;7.20;;;1.10;;
61840;SDS011;47773;53.174;6.614;2024-02-23T10:48:09;9.15;;;1.52;;
61840;SDS011;47773;53.174;6.614;2024-02-23T10:50:36;8.25;;;1.27;;
61840;SDS011;47773;53.174;6.614;2024-02-23T10:53:04;9.45;;;1.30;;
61840;SDS011;47773;53.174;6.614;2024-02-23T10:55:32;6.63;;;1.00;;
61840;SDS011;47773;53.174;6.614;2024-02-23T10:57:58;9.95;;;1.42;;
61840;SDS011;47773;53.174;6.614;2024-02-23T11:00:25;9.57;;;2.22;;
61840;SDS011;47773;53.174;6.614;2024-02-23T11:02:51;10.52;;;1.40;;
61840;SDS011;47773;53.174;6.614;2024-02-23T11:05:19;4.93;;;1.15;;
61840;SDS011;47773;53.174;6.614;2024-02-23T11:07:47;10.38;;;1.70;;
61840;SDS011;47773;53.174;6.614;2024-02-23T11:10:17;8.43;;;1.25;;
61840;SDS011;47773;53.174;6.614;2024-02-23T11:12:43;7.03;;;1.48;;
61840;SDS011;47773;53.174;6.614;2024-02-23T11:15:09;10.68;;;1.30;;
61840;SDS011;47773;53.174;6.614;2024-02-23T11:17:53;8.80;;;1.48;;
61840;SDS011;47773;53.174;6.614;2024-02-23T11:20:20;9.00;;;1.77;;
61840;SDS011;47773;53.174;6.614;2024-02-23T11:22:51;8.07;;;1.75;;
61840;SDS011;47773;53.174;6.614;2024-02-23T11:25:18;7.95;;;1.38;;
61840;SDS011;47773;53.174;6.614;2024-02-23T11:27:45;13.38;;;1.50;;
61840;SDS011;47773;53.174;6.614;2024-02-23T11:30:16;7.13;;;1.42;;
61840;SDS011;47773;53.174;6.614;2024-02-23T11:32:45;8.40;;;1.60;;
61840;SDS011;47773;53.174;6.614;2024-02-23T11:35:16;6.70;;;1.45;;
61840;SDS011;47773;53.174;6.614;2024-02-23T11:37:52;11.98;;;1.75;;
61840;SDS011;47773;53.174;6.614;2024-02-23T11:40:25;18.95;;;1.98;;
61840;SDS011;47773;53.174;6.614;2024-02-23T11:42:51;13.57;;;1.88;;
61840;SDS011;47773;53.174;6.614;2024-02-23T11:45:17;6.63;;;1.27;;
61840;SDS011;47773;53.174;6.614;2024-02-23T11:47:42;8.90;;;1.60;;
61840;SDS011;47773;53.174;6.614;2024-02-23T11:50:09;4.60;;;1.35;;
61840;SDS011;47773;53.174;6.614;2024-02-23T11:52:38;16.67;;;1.85;;
61840;SDS011;47773;53.174;6.614;2024-02-23T11:55:04;7.45;;;1.25;;
61840;SDS011;47773;53.174;6.614;2024-02-23T11:57:34;8.50;;;1.50;;
61840;SDS011;47773;53.174;6.614;2024-02-23T12:00:03;9.98;;;1.75;;
61840;SDS011;47773;53.174;6.614;2024-02-23T12:02:31;12.50;;;1.80;;
61840;SDS011;47773;53.174;6.614;2024-02-23T12:04:57;13.02;;;1.80;;
61840;SDS011;47773;53.174;6.614;2024-02-23T12:07:23;14.75;;;1.95;;
61840;SDS011;47773;53.174;6.614;2024-02-23T12:09:51;7.28;;;1.70;;
61840;SDS011;47773;53.174;6.614;2024-02-23T12:12:17;7.82;;;1.60;;
61840;SDS011;47773;53.174;6.614;2024-02-23T12:14:43;9.80;;;1.67;;
61840;SDS011;47773;53.174;6.614;2024-02-23T12:17:09;7.45;;;1.42;;
61840;SDS011;47773;53.174;6.614;2024-02-23T12:19:41;11.10;;;2.22;;
61840;SDS011;47773;53.174;6.614;2024-02-23T12:22:07;6.47;;;1.55;;
61840;SDS011;47773;53.174;6.614;2024-02-23T12:24:34;8.68;;;1.70;;
61840;SDS011;47773;53.174;6.614;2024-02-23T12:26:59;14.52;;;1.75;;
61840;SDS011;47773;53.174;6.614;2024-02-23T12:29:25;9.00;;;1.75;;
61840;SDS011;47773;53.174;6.614;2024-02-23T12:32:02;6.15;;;1.70;;
61840;SDS011;47773;53.174;6.614;2024-02-23T12:34:31;11.30;;;2.33;;
61840;SDS011;47773;53.174;6.614;2024-02-23T12:36:57;8.70;;;1.83;;
61840;SDS011;47773;53.174;6.614;2024-02-23T12:39:22;8.25;;;1.52;;
61840;SDS011;47773;53.174;6.614;2024-02-23T12:41:48;12.63;;;2.30;;
61840;SDS011;47773;53.174;6.614;2024-02-23T12:44:13;13.57;;;1.88;;
61840;SDS011;47773;53.174;6.614;2024-02-23T12:46:40;10.13;;;1.77;;
61840;SDS011;47773;53.174;6.614;2024-02-23T12:49:05;9.23;;;1.80;;
61840;SDS011;47773;53.174;6.614;2024-02-23T12:51:31;9.93;;;1.92;;
61840;SDS011;47773;53.174;6.614;2024-02-23T12:53:57;9.88;;;1.83;;
61840;SDS011;47773;53.174;6.614;2024-02-23T12:56:22;11.23;;;1.90;;
61840;SDS011;47773;53.174;6.614;2024-02-23T12:58:50;8.90;;;1.55;;
61840;SDS011;47773;53.174;6.614;2024-02-23T13:01:15;6.03;;;1.55;;
61840;SDS011;47773;53.174;6.614;2024-02-23T13:03:41;7.75;;;1.65;;
61840;SDS011;47773;53.174;6.614;2024-02-23T13:06:07;8.75;;;1.77;;
61840;SDS011;47773;53.174;6.614;2024-02-23T13:08:32;7.90;;;1.80;;
61840;SDS011;47773;53.174;6.614;2024-02-23T13:10:59;12.18;;;1.70;;
61840;SDS011;47773;53.174;6.614;2024-02-23T13:13:25;12.27;;;1.80;;
61840;SDS011;47773;53.174;6.614;2024-02-23T13:15:52;8.40;;;1.77;;
61840;SDS011;47773;53.174;6.614;2024-02-23T13:18:18;6.20;;;1.70;;
61840;SDS011;47773;53.174;6.614;2024-02-23T13:20:45;9.93;;;2.00;;
61840;SDS011;47773;53.174;6.614;2024-02-23T13:23:11;9.73;;;1.60;;
61840;SDS011;47773;53.174;6.614;2024-02-23T13:25:37;3.65;;;1.77;;
61840;SDS011;47773;53.174;6.614;2024-02-23T13:28:04;5.32;;;1.98;;
61840;SDS011;47773;53.174;6.614;2024-02-23T13:30:31;6.97;;;1.98;;
61840;SDS011;47773;53.174;6.614;2024-02-23T13:32:56;8.75;;;1.90;;
61840;SDS011;47773;53.174;6.614;2024-02-23T13:35:22;7.18;;;1.77;;
61840;SDS011;47773;53.174;6.614;2024-02-23T13:37:48;10.23;;;2.40;;
61840;SDS011;47773;53.174;6.614;2024-02-23T13:40:14;14.30;;;2.35;;
61840;SDS011;47773;53.174;6.614;2024-02-23T13:42:39;7.38;;;2.25;;
61840;SDS011;47773;53.174;6.614;2024-02-23T13:45:06;8.40;;;2.30;;
61840;SDS011;47773;53.174;6.614;2024-02-23T13:47:33;11.25;;;1.98;;
61840;SDS011;47773;53.174;6.614;2024-02-23T13:50:00;10.95;;;2.42;;
61840;SDS011;47773;53.174;6.614;2024-02-23T13:52:26;8.98;;;1.80;;
61840;SDS011;47773;53.174;6.614;2024-02-23T13:54:52;9.40;;;1.88;;
61840;SDS011;47773;53.174;6.614;2024-02-23T13:57:17;6.47;;;2.08;;
61840;SDS011;47773;53.174;6.614;2024-02-23T13:59:43;12.10;;;2.22;;
61840;SDS011;47773;53.174;6.614;2024-02-23T14:02:08;8.95;;;2.28;;
61840;SDS011;47773;53.174;6.614;2024-02-23T14:04:34;7.68;;;2.05;;
61840;SDS011;47773;53.174;6.614;2024-02-23T14:07:00;8.93;;;2.40;;
61840;SDS011;47773;53.174;6.614;2024-02-23T14:09:26;6.65;;;2.30;;
61840;SDS011;47773;53.174;6.614;2024-02-23T14:11:52;10.88;;;2.35;;
61840;SDS011;47773;53.174;6.614;2024-02-23T14:14:18;11.27;;;2.78;;
61840;SDS011;47773;53.174;6.614;2024-02-23T14:16:45;4.63;;;2.08;;
61840;SDS011;47773;53.174;6.614;2024-02-23T14:19:10;9.77;;;2.55;;
61840;SDS011;47773;53.174;6.614;2024-02-23T14:21:36;11.73;;;2.05;;
61840;SDS011;47773;53.174;6.614;2024-02-23T14:24:02;9.80;;;2.40;;
61840;SDS011;47773;53.174;6.614;2024-02-23T14:26:29;5.82;;;2.10;;
61840;SDS011;47773;53.174;6.614;2024-02-23T14:28:54;11.38;;;2.45;;
61840;SDS011;47773;53.174;6.614;2024-02-23T14:31:20;10.00;;;2.47;;
61840;SDS011;47773;53.174;6.614;2024-02-23T14:33:46;13.98;;;2.83;;
61840;SDS011;47773;53.174;6.614;2024-02-23T14:36:15;13.07;;;2.65;;